createdAt,value
2018-12-11T00:00:50.365Z,5.40
2018-12-11T00:03:22.444Z,5.40
2018-12-11T00:05:58.554Z,5.40
2018-12-11T00:08:29.355Z,5.30
2018-12-11T00:11:02.768Z,5.40
2018-12-11T00:13:36.209Z,5.40
2018-12-11T00:16:09.480Z,5.30
2018-12-11T00:18:40.859Z,5.40
2018-12-11T00:21:10.983Z,5.40
2018-12-11T00:23:42.111Z,5.50
2018-12-11T00:26:12.412Z,5.50
2018-12-11T00:28:41.859Z,5.50
2018-12-11T00:31:11.983Z,5.50
2018-12-11T00:33:41.535Z,5.60
2018-12-11T00:36:11.199Z,5.50
2018-12-11T00:38:40.700Z,5.50
2018-12-11T00:41:11.299Z,5.50
2018-12-11T00:43:41.321Z,5.50
2018-12-11T00:46:10.744Z,5.50
2018-12-11T00:48:40.071Z,5.50
2018-12-11T00:51:09.675Z,5.50
2018-12-11T00:53:39.121Z,5.40
2018-12-11T00:56:08.950Z,5.50
2018-12-11T00:58:38.398Z,5.40
2018-12-11T01:01:07.715Z,5.40
2018-12-11T01:03:37.124Z,5.40
2018-12-11T01:06:07.229Z,5.40
2018-12-11T01:08:37.639Z,5.40
2018-12-11T01:11:07.338Z,5.40
2018-12-11T01:13:37.468Z,5.40
2018-12-11T01:16:11.046Z,5.40
2018-12-11T01:18:41.872Z,5.40
2018-12-11T01:21:11.345Z,5.40
2018-12-11T01:23:40.653Z,5.40
2018-12-11T01:26:09.976Z,5.40
2018-12-11T01:28:39.314Z,5.40
2018-12-11T01:31:09.420Z,5.40
2018-12-11T01:33:40.259Z,5.40
2018-12-11T01:36:09.721Z,5.40
2018-12-11T01:38:39.344Z,5.40
2018-12-11T01:41:09.009Z,5.40
2018-12-11T01:43:38.306Z,5.40
2018-12-11T01:46:07.732Z,5.40
2018-12-11T01:48:37.352Z,5.40
2018-12-11T01:51:07.056Z,5.30
2018-12-11T01:53:36.636Z,5.30
2018-12-11T01:56:06.139Z,5.40
2018-12-11T01:58:35.560Z,5.30
2018-12-11T02:01:05.205Z,5.30
2018-12-11T02:03:34.993Z,5.40
2018-12-11T02:06:04.537Z,5.40
2018-12-11T02:08:34.592Z,5.40
2018-12-11T02:11:05.210Z,5.40
2018-12-11T02:13:34.520Z,5.40
2018-12-11T02:16:03.963Z,5.40
2018-12-11T02:18:33.544Z,5.30
2018-12-11T02:21:05.853Z,5.30
2018-12-11T02:23:35.201Z,5.20
2018-12-11T02:26:04.657Z,5.20
2018-12-11T02:28:33.883Z,5.20
2018-12-11T02:31:03.184Z,5.20
2018-12-11T02:33:32.426Z,5.10
2018-12-11T02:36:02.603Z,5.10
2018-12-11T02:38:32.405Z,5.10
2018-12-11T02:41:01.939Z,5.00
2018-12-11T02:43:32.155Z,5.00
2018-12-11T02:46:02.819Z,5.00
2018-12-11T02:48:33.755Z,4.90
2018-12-11T02:51:03.604Z,4.90
2018-12-11T02:53:33.096Z,5.00
2018-12-11T02:56:02.897Z,4.90
2018-12-11T02:58:32.711Z,4.80
2018-12-11T03:01:02.216Z,4.90
2018-12-11T03:03:31.623Z,4.80
2018-12-11T03:06:05.183Z,4.90
2018-12-11T03:08:39.030Z,4.80
2018-12-11T03:11:08.633Z,4.70
2018-12-11T03:13:37.939Z,4.70
2018-12-11T03:16:08.382Z,4.60
2018-12-11T03:18:37.883Z,4.60
2018-12-11T03:21:07.542Z,4.60
2018-12-11T03:23:37.437Z,4.60
2018-12-11T03:26:07.098Z,4.60
2018-12-11T03:28:36.734Z,4.60
2018-12-11T03:31:07.064Z,4.60
2018-12-11T03:33:36.696Z,4.60
2018-12-11T03:36:06.535Z,4.60
2018-12-11T03:38:35.744Z,4.60
2018-12-11T03:41:05.075Z,4.70
2018-12-11T03:43:34.385Z,4.70
2018-12-11T03:46:03.788Z,4.70
2018-12-11T03:48:33.490Z,4.70
2018-12-11T03:51:03.179Z,4.70
2018-12-11T03:53:33.234Z,4.70
2018-12-11T03:56:02.464Z,4.70
2018-12-11T03:58:31.895Z,4.70
2018-12-11T04:01:01.353Z,4.70
2018-12-11T04:03:30.661Z,4.70
2018-12-11T04:06:00.200Z,4.70
2018-12-11T04:08:30.450Z,4.70
2018-12-11T04:11:00.018Z,4.80
2018-12-11T04:13:29.801Z,4.80
2018-12-11T04:15:59.990Z,4.80
2018-12-11T04:18:30.705Z,4.90
2018-12-11T04:21:00.784Z,4.90
2018-12-11T04:23:30.126Z,4.90
2018-12-11T04:25:59.549Z,5.00
2018-12-11T04:28:31.751Z,4.90
2018-12-11T04:31:01.374Z,4.90
2018-12-11T04:33:30.856Z,4.80
2018-12-11T04:36:00.513Z,4.90
2018-12-11T04:38:30.454Z,4.90
2018-12-11T04:40:59.832Z,4.80
2018-12-11T04:43:29.812Z,4.80
2018-12-11T04:45:59.122Z,4.70
2018-12-11T04:48:28.973Z,4.70
2018-12-11T04:50:58.620Z,4.70
2018-12-11T04:53:27.852Z,4.70
2018-12-11T04:55:57.061Z,4.70
2018-12-11T04:58:26.408Z,4.70
2018-12-11T05:00:56.189Z,4.80
2018-12-11T05:03:25.429Z,4.80
2018-12-11T05:05:54.825Z,4.80
2018-12-11T05:08:24.361Z,4.90
2018-12-11T05:10:53.718Z,4.80
2018-12-11T05:13:23.072Z,4.70
2018-12-11T05:15:52.498Z,4.70
2018-12-11T05:18:24.425Z,4.70
2018-12-11T05:20:53.804Z,4.60
2018-12-11T05:23:23.445Z,4.70
2018-12-11T05:25:54.303Z,4.60
2018-12-11T05:28:26.291Z,4.60
2018-12-11T05:30:55.904Z,4.60
2018-12-11T05:33:26.342Z,4.60
2018-12-11T05:35:56.372Z,4.60
2018-12-11T05:38:26.637Z,4.70
2018-12-11T05:40:59.094Z,4.70
2018-12-11T05:43:28.624Z,4.70
2018-12-11T05:45:58.276Z,4.80
2018-12-11T05:48:28.019Z,4.90
2018-12-11T05:50:58.097Z,4.90
2018-12-11T05:53:28.355Z,5.00
2018-12-11T05:55:58.216Z,5.00
2018-12-11T05:58:36.037Z,5.10
2018-12-11T06:01:09.932Z,5.10
2018-12-11T06:03:40.197Z,5.10
2018-12-11T06:06:09.866Z,5.10
2018-12-11T06:08:39.768Z,5.10
2018-12-11T06:11:09.530Z,5.10
2018-12-11T06:13:39.251Z,5.10
2018-12-11T06:16:09.514Z,5.10
2018-12-11T06:18:39.391Z,5.00
2018-12-11T06:21:09.747Z,4.90
2018-12-11T06:23:40.381Z,4.80
2018-12-11T06:26:10.301Z,4.80
2018-12-11T06:28:40.417Z,4.70
2018-12-11T06:31:10.157Z,4.70
2018-12-11T06:33:39.936Z,4.80
2018-12-11T06:36:10.084Z,4.70
2018-12-11T06:38:40.093Z,4.80
2018-12-11T06:41:10.216Z,4.80
2018-12-11T06:43:41.494Z,4.80
2018-12-11T06:46:12.634Z,4.80
2018-12-11T06:48:42.206Z,4.80
2018-12-11T06:51:12.279Z,4.90
2018-12-11T06:53:41.868Z,4.90
2018-12-11T06:56:11.979Z,4.90
2018-12-11T06:58:41.964Z,4.90
2018-12-11T07:01:12.145Z,4.80
2018-12-11T07:03:41.891Z,4.90
2018-12-11T07:06:15.069Z,5.00
2018-12-11T07:08:45.735Z,5.00
2018-12-11T07:11:15.509Z,4.90
2018-12-11T07:13:50.290Z,4.90
2018-12-11T07:16:19.860Z,4.90
2018-12-11T07:18:50.378Z,5.00
2018-12-11T07:21:26.179Z,5.10
2018-12-11T07:23:56.813Z,5.00
2018-12-11T07:26:28.070Z,5.10
2018-12-11T07:28:58.328Z,5.10
2018-12-11T07:31:29.829Z,5.10
2018-12-11T07:34:00.731Z,5.20
2018-12-11T07:36:30.678Z,5.10
2018-12-11T07:39:01.341Z,5.20
2018-12-11T07:41:40.201Z,5.20
2018-12-11T07:44:11.594Z,5.30
2018-12-11T07:46:42.583Z,5.20
2018-12-11T07:49:13.572Z,5.20
2018-12-11T07:51:45.249Z,5.20
2018-12-11T07:54:16.005Z,5.20
2018-12-11T07:56:46.988Z,5.20
2018-12-11T07:59:17.591Z,5.30
2018-12-11T08:01:47.342Z,5.20
2018-12-11T08:04:16.909Z,5.20
2018-12-11T08:06:47.167Z,5.20
2018-12-11T08:09:17.577Z,5.10
2018-12-11T08:11:47.360Z,5.10
2018-12-11T08:14:17.180Z,5.00
2018-12-11T08:16:47.491Z,5.00
2018-12-11T08:19:18.075Z,4.90
2018-12-11T08:21:48.043Z,4.90
2018-12-11T08:24:18.470Z,4.90
2018-12-11T08:26:49.661Z,4.90
2018-12-11T08:29:20.561Z,4.90
2018-12-11T08:31:50.380Z,4.90
2018-12-11T08:34:24.798Z,4.90
2018-12-11T08:37:01.042Z,5.00
2018-12-11T08:39:36.748Z,5.10
2018-12-11T08:42:09.176Z,5.10
2018-12-11T08:44:39.920Z,5.10
2018-12-11T08:47:09.722Z,5.00
2018-12-11T08:49:44.562Z,4.90
2018-12-11T08:52:14.431Z,5.00
2018-12-11T08:54:46.457Z,5.00
2018-12-11T08:57:16.857Z,5.10
2018-12-11T08:59:46.947Z,5.00
2018-12-11T09:02:17.790Z,5.10
2018-12-11T09:04:47.703Z,5.20
2018-12-11T09:07:17.390Z,5.10
2018-12-11T09:09:47.639Z,5.10
2018-12-11T09:12:18.016Z,5.20
2018-12-11T09:14:47.973Z,5.40
2018-12-11T09:17:19.282Z,5.50
2018-12-11T09:19:51.327Z,5.60
2018-12-11T09:22:22.006Z,5.70
2018-12-11T09:24:52.284Z,6.00
2018-12-11T09:27:22.001Z,6.00
2018-12-11T09:29:58.818Z,6.10
2018-12-11T09:32:34.967Z,5.90
2018-12-11T09:35:05.270Z,6.00
2018-12-11T09:37:35.416Z,6.10
2018-12-11T09:40:06.299Z,6.10
2018-12-11T09:42:36.531Z,6.20
2018-12-11T09:45:08.928Z,6.30
2018-12-11T09:47:42.273Z,6.30
2018-12-11T09:50:14.886Z,6.30
2018-12-11T09:52:46.783Z,6.20
2018-12-11T09:55:18.851Z,6.20
2018-12-11T09:57:49.801Z,6.10
2018-12-11T10:00:25.778Z,6.20
2018-12-11T10:02:52.794Z,6.20
2018-12-11T10:05:24.341Z,6.20
2018-12-11T10:07:54.335Z,6.00
2018-12-11T10:10:27.104Z,6.00
2018-12-11T10:13:00.942Z,5.90
2018-12-11T10:15:31.808Z,5.90
2018-12-11T10:18:03.987Z,5.90
2018-12-11T10:20:34.262Z,5.90
2018-12-11T10:23:05.239Z,5.90
2018-12-11T10:25:39.015Z,5.90
2018-12-11T10:28:10.166Z,6.00
2018-12-11T10:30:46.171Z,6.20
2018-12-11T10:33:24.381Z,6.30
2018-12-11T10:35:54.762Z,6.30
2018-12-11T10:38:24.781Z,6.30
2018-12-11T10:41:03.975Z,6.30
2018-12-11T10:43:36.789Z,6.20
2018-12-11T10:46:09.032Z,6.20
2018-12-11T10:48:42.055Z,6.00
2018-12-11T10:51:16.651Z,5.90
2018-12-11T10:53:49.406Z,5.90
2018-12-11T10:56:19.306Z,6.00
2018-12-11T10:58:49.120Z,6.20
2018-12-11T11:04:17.461Z,6.20
2018-12-11T11:06:47.616Z,6.40
2018-12-11T11:09:19.446Z,6.40
2018-12-11T11:11:49.610Z,6.40
2018-12-11T11:14:20.986Z,6.50
2018-12-11T11:16:55.355Z,6.60
2018-12-11T11:19:26.434Z,6.60
2018-12-11T11:22:02.777Z,6.60
2018-12-11T11:24:41.743Z,6.60
2018-12-11T11:27:12.411Z,6.70
2018-12-11T11:29:47.031Z,6.60
2018-12-11T11:32:17.284Z,6.50
2018-12-11T11:34:48.942Z,6.60
2018-12-11T11:37:21.065Z,6.70
2018-12-11T11:39:52.356Z,6.70
2018-12-11T11:42:23.880Z,6.90
2018-12-11T11:44:56.402Z,7.00
2018-12-11T11:47:26.698Z,6.90
2018-12-11T11:49:58.070Z,6.90
2018-12-11T11:52:29.414Z,7.10
2018-12-11T11:55:00.932Z,7.30
2018-12-11T11:57:33.852Z,7.60
2018-12-11T12:00:05.346Z,8.00
2018-12-11T12:02:35.484Z,8.10
2018-12-11T12:05:13.921Z,8.20
2018-12-11T12:07:45.648Z,8.10
2018-12-11T12:10:15.440Z,8.00
2018-12-11T12:12:46.628Z,7.90
2018-12-11T12:15:20.634Z,8.00
2018-12-11T12:17:50.922Z,7.80
2018-12-11T12:20:20.663Z,7.80
2018-12-11T12:22:53.133Z,7.70
2018-12-11T12:25:25.801Z,7.70
2018-12-11T12:28:06.293Z,7.70
2018-12-11T12:30:37.183Z,7.60
2018-12-11T12:33:08.939Z,7.70
2018-12-11T12:35:45.927Z,7.60
2018-12-11T12:38:17.442Z,7.50
2018-12-11T12:40:50.908Z,7.50
2018-12-11T12:43:20.888Z,7.50
2018-12-11T12:45:53.638Z,7.50
2018-12-11T12:48:23.329Z,7.50
2018-12-11T12:51:01.998Z,7.50
2018-12-11T12:53:33.443Z,7.70
2018-12-11T12:56:11.785Z,7.90
2018-12-11T12:58:46.087Z,7.70
2018-12-11T13:01:17.873Z,7.50
2018-12-11T13:03:48.403Z,7.50
2018-12-11T13:06:20.340Z,7.50
2018-12-11T13:08:52.773Z,7.60
2018-12-11T13:11:23.481Z,7.50
2018-12-11T13:13:56.770Z,7.50
2018-12-11T13:16:27.669Z,7.40
2018-12-11T13:19:02.743Z,7.20
2018-12-11T13:21:34.688Z,6.90
2018-12-11T13:24:05.338Z,6.60
2018-12-11T13:26:36.098Z,6.30
2018-12-11T13:29:07.530Z,6.10
2018-12-11T13:31:47.952Z,6.00
2018-12-11T13:34:25.861Z,6.00
2018-12-11T13:36:58.987Z,6.00
2018-12-11T13:39:31.224Z,6.10
2018-12-11T13:42:05.227Z,6.30
2018-12-11T13:44:35.413Z,6.40
2018-12-11T13:47:08.913Z,6.50
2018-12-11T13:49:41.655Z,6.60
2018-12-11T13:52:14.761Z,6.60
2018-12-11T13:54:50.491Z,6.80
2018-12-11T13:57:22.317Z,6.90
2018-12-11T13:59:55.135Z,6.90
2018-12-11T14:02:26.834Z,6.80
2018-12-11T14:04:57.271Z,6.70
2018-12-11T14:07:28.309Z,6.80
2018-12-11T14:10:06.136Z,6.80
2018-12-11T14:12:48.585Z,6.70
2018-12-11T14:15:20.210Z,6.70
2018-12-11T14:17:50.220Z,6.70
2018-12-11T14:20:20.345Z,6.60
2018-12-11T14:22:51.128Z,6.50
2018-12-11T14:25:23.634Z,6.40
2018-12-11T14:27:57.017Z,6.30
2018-12-11T14:30:27.884Z,6.30
2018-12-11T14:32:57.571Z,6.40
2018-12-11T14:35:46.824Z,6.30
2018-12-11T14:38:17.716Z,6.30
2018-12-11T14:40:48.279Z,6.30
2018-12-11T14:43:18.289Z,6.30
2018-12-11T14:45:47.923Z,6.20
2018-12-11T14:48:17.950Z,6.20
2018-12-11T14:50:47.966Z,6.10
2018-12-11T14:53:21.271Z,6.10
2018-12-11T14:55:53.823Z,6.10
2018-12-11T14:58:24.175Z,6.00
2018-12-11T15:00:55.442Z,6.10
2018-12-11T15:03:35.721Z,6.10
2018-12-11T15:06:07.546Z,6.10
2018-12-11T15:08:38.000Z,6.10
2018-12-11T15:11:09.644Z,6.10
2018-12-11T15:13:39.633Z,6.20
2018-12-11T15:16:14.993Z,6.20
2018-12-11T15:18:45.255Z,6.30
2018-12-11T15:21:16.406Z,6.40
2018-12-11T15:23:46.860Z,6.40
2018-12-11T15:26:20.844Z,6.30
2018-12-11T15:28:52.669Z,6.30
2018-12-11T15:31:22.995Z,6.30
2018-12-11T15:33:54.502Z,6.30
2018-12-11T15:36:24.702Z,6.30
2018-12-11T15:38:54.423Z,6.30
2018-12-11T15:41:24.860Z,6.30
2018-12-11T15:43:57.232Z,6.30
2018-12-11T15:46:27.295Z,6.40
2018-12-11T15:48:58.780Z,6.30
2018-12-11T15:51:30.494Z,6.40
2018-12-11T15:54:03.537Z,6.40
2018-12-11T15:56:37.274Z,6.50
2018-12-11T15:59:20.296Z,6.50
2018-12-11T16:01:52.294Z,6.60
2018-12-11T16:04:22.045Z,6.60
2018-12-11T16:06:54.294Z,6.60
2018-12-11T16:09:36.143Z,6.60
2018-12-11T16:12:12.447Z,6.80
2018-12-11T16:14:46.002Z,6.70
2018-12-11T16:17:16.709Z,6.70
2018-12-11T16:19:47.893Z,6.70
2018-12-11T16:22:18.930Z,6.60
2018-12-11T16:24:51.342Z,6.60
2018-12-11T16:27:28.352Z,6.70
2018-12-11T16:29:59.700Z,6.70
2018-12-11T16:32:40.456Z,6.70
2018-12-11T16:35:11.672Z,6.80
2018-12-11T16:37:44.173Z,6.70
2018-12-11T16:40:15.049Z,6.70
2018-12-11T16:42:45.444Z,6.80
2018-12-11T16:45:17.413Z,6.80
2018-12-11T16:47:48.462Z,6.90
2018-12-11T16:50:21.325Z,6.90
2018-12-11T16:52:52.744Z,6.80
2018-12-11T16:55:26.160Z,6.90
2018-12-11T16:57:57.091Z,6.90
2018-12-11T17:00:29.862Z,6.80
2018-12-11T17:03:02.694Z,6.80
2018-12-11T17:05:50.625Z,6.90
2018-12-11T17:08:22.150Z,6.90
2018-12-11T17:11:02.746Z,6.90
2018-12-11T17:13:34.065Z,6.80
2018-12-11T17:16:10.968Z,6.70
2018-12-11T17:18:41.573Z,6.60
2018-12-11T17:21:21.071Z,6.60
2018-12-11T17:23:58.345Z,6.60
2018-12-11T17:26:29.251Z,6.40
2018-12-11T17:31:57.858Z,6.40
2018-12-11T17:34:50.714Z,6.40
2018-12-11T17:37:37.006Z,6.40
2018-12-11T17:40:14.291Z,6.50
2018-12-11T17:42:48.607Z,6.60
2018-12-11T17:45:19.761Z,6.70
2018-12-11T17:47:55.943Z,6.60
2018-12-11T17:50:39.894Z,6.70
2018-12-11T17:53:15.799Z,6.80
2018-12-11T17:55:55.265Z,6.70
2018-12-11T17:58:41.483Z,6.70
2018-12-11T18:01:38.324Z,6.70
2018-12-11T18:04:15.498Z,6.70
2018-12-11T18:06:53.328Z,6.80
2018-12-11T18:09:26.683Z,6.90
2018-12-11T18:12:02.037Z,6.80
2018-12-11T18:14:46.364Z,6.90
2018-12-11T18:17:18.434Z,6.90
2018-12-11T18:20:08.862Z,7.00
2018-12-11T18:22:41.428Z,6.90
2018-12-11T18:25:13.657Z,7.00
2018-12-11T18:27:56.747Z,7.00
2018-12-11T18:30:27.544Z,7.10
2018-12-11T18:33:00.157Z,7.10
2018-12-11T18:35:30.424Z,7.10
2018-12-11T18:38:10.912Z,7.00
2018-12-11T18:41:04.956Z,6.80
2018-12-11T18:43:50.682Z,6.80
2018-12-11T18:49:24.005Z,6.90
2018-12-11T18:51:55.298Z,6.80
2018-12-11T18:54:36.432Z,6.70
2018-12-11T18:57:14.951Z,6.70
2018-12-11T18:59:53.138Z,6.80
2018-12-11T19:02:25.602Z,6.80
2018-12-11T19:05:02.490Z,6.70
2018-12-11T19:07:36.527Z,6.70
2018-12-11T19:10:07.845Z,6.60
2018-12-11T19:12:39.021Z,6.50
2018-12-11T19:15:10.547Z,6.50
2018-12-11T19:17:47.443Z,6.50
2018-12-11T19:20:22.488Z,6.50
2018-12-11T19:23:07.979Z,6.40
2018-12-11T19:25:42.983Z,6.50
2018-12-11T19:28:13.369Z,6.40
2018-12-11T19:30:59.815Z,6.50
2018-12-11T19:33:33.220Z,6.50
2018-12-11T19:36:05.019Z,6.50
2018-12-11T19:38:42.439Z,6.50
2018-12-11T19:41:17.506Z,6.40
2018-12-11T19:43:51.526Z,6.40
2018-12-11T19:46:24.994Z,6.40
2018-12-11T19:48:55.123Z,6.30
2018-12-11T19:51:34.489Z,6.20
2018-12-11T19:54:07.033Z,6.20
2018-12-11T19:56:39.466Z,6.10
2018-12-11T19:59:20.619Z,6.00
2018-12-11T20:01:55.484Z,5.90
2018-12-11T20:04:30.972Z,6.10
2018-12-11T20:07:04.138Z,6.40
2018-12-11T20:09:40.704Z,6.50
2018-12-11T20:12:12.583Z,6.50
2018-12-11T20:14:46.557Z,6.50
2018-12-11T20:17:18.674Z,6.50
2018-12-11T20:19:51.214Z,6.50
2018-12-11T20:22:24.587Z,6.30
2018-12-11T20:24:59.852Z,5.90
2018-12-11T20:27:31.272Z,5.80
2018-12-11T20:30:10.809Z,5.80
2018-12-11T20:32:51.657Z,5.80
2018-12-11T20:35:31.650Z,5.90
2018-12-11T20:38:05.666Z,5.90
2018-12-11T20:40:37.881Z,6.00
2018-12-11T20:43:14.455Z,6.10
2018-12-11T20:45:48.101Z,6.20
2018-12-11T20:48:18.246Z,6.10
2018-12-11T20:50:50.462Z,6.10
2018-12-11T20:53:28.123Z,6.10
2018-12-11T20:56:06.457Z,6.20
2018-12-11T20:58:50.825Z,6.30
2018-12-11T21:04:07.320Z,6.20
2018-12-11T21:06:41.765Z,6.30
2018-12-11T21:09:20.761Z,6.30
2018-12-11T21:12:00.901Z,6.30
2018-12-11T21:14:39.422Z,6.20
2018-12-11T21:17:14.456Z,6.10
2018-12-11T21:20:16.631Z,6.10
2018-12-11T21:22:57.444Z,6.20
2018-12-11T21:25:34.420Z,6.20
2018-12-11T21:28:11.220Z,6.20
2018-12-11T21:30:47.801Z,6.20
2018-12-11T21:33:25.089Z,6.30
2018-12-11T21:35:58.246Z,6.50
2018-12-11T21:38:31.335Z,6.60
2018-12-11T21:41:09.260Z,6.30
2018-12-11T21:43:43.911Z,6.20
2018-12-11T21:46:17.461Z,6.20
2018-12-11T21:49:08.815Z,6.00
2018-12-11T21:51:42.853Z,5.90
2018-12-11T21:54:19.431Z,5.70
2018-12-11T21:56:51.315Z,5.60
2018-12-11T21:59:25.578Z,5.60
2018-12-11T22:01:57.095Z,5.60
2018-12-11T22:04:28.128Z,5.60
2018-12-11T22:07:01.837Z,5.70
2018-12-11T22:09:33.009Z,5.50
2018-12-11T22:12:08.579Z,5.50
2018-12-11T22:14:44.407Z,5.50
2018-12-11T22:17:19.717Z,5.50
2018-12-11T22:19:55.549Z,5.40
2018-12-11T22:22:29.052Z,5.50
2018-12-11T22:25:15.801Z,5.50
2018-12-11T22:27:49.488Z,5.60
2018-12-11T22:30:21.438Z,5.60
2018-12-11T22:32:53.762Z,5.60
2018-12-11T22:35:26.919Z,5.70
2018-12-11T22:37:59.905Z,5.80
2018-12-11T22:40:32.603Z,5.80
2018-12-11T22:43:04.466Z,5.60
2018-12-11T22:45:36.655Z,5.50
2018-12-11T22:48:07.921Z,5.70
2018-12-11T22:50:39.841Z,5.60
2018-12-11T22:53:10.699Z,5.70
2018-12-11T22:55:42.589Z,5.80
2018-12-11T22:58:18.112Z,5.70
2018-12-11T23:00:51.055Z,5.60
2018-12-11T23:03:25.581Z,5.60
2018-12-11T23:05:59.442Z,5.40
2018-12-11T23:08:30.339Z,5.40
2018-12-11T23:11:03.889Z,5.40
2018-12-11T23:13:43.609Z,5.50
2018-12-11T23:16:22.336Z,5.50
2018-12-11T23:18:52.489Z,5.50
2018-12-11T23:21:22.973Z,5.40
2018-12-11T23:23:54.058Z,5.40
2018-12-11T23:26:24.067Z,5.50
2018-12-11T23:28:54.655Z,5.40
2018-12-11T23:31:25.940Z,5.30
2018-12-11T23:33:55.848Z,5.30
2018-12-11T23:36:25.634Z,5.20
2018-12-11T23:38:56.310Z,5.30
2018-12-11T23:41:31.173Z,5.10
2018-12-11T23:44:01.219Z,5.00
2018-12-11T23:46:34.791Z,4.90
2018-12-11T23:49:04.533Z,4.90
2018-12-11T23:51:34.226Z,4.90
2018-12-11T23:54:04.381Z,4.90
2018-12-11T23:56:35.803Z,4.90
2018-12-11T23:59:08.570Z,4.90
